Terminal Aerodrome Forecast
Issued by NWS

Home | Current Version | Previous Version | Text Only | Print | Product List | Glossary On
Versions: 1 2 3 4 5 6 7 8 9 10 11 12 13 14 15
000
FTUS42 KMLB 020112 AAA
TAFISM
TAF AMD
KISM 020112Z 0201/0224 18010KT P6SM VCTS SCT060CB BKN120
     FM020300 18003KT P6SM SCT250
     FM021400 20005KT P6SM SCT025 SCT250
      AMD NOT SKED 0203/0212=

USA.gov is the U.S. government's official web portal to all federal, state and local government web resources and services.